Time;durP1;ratioP1;P1;durP2;ratioP2;P2;SDS_P1;SDS_P2;PMS_P1;PMS_P2;Temp;Humidity;BMP_temperature;BMP_pressure;BME280_temperature;BME280_humidity;BME280_pressure;Samples;Min_cycle;Max_cycle;Signal;HPM_P1;HPM_P2
2023/07/15 00:00:01;;;;;;;7.43;3.65;;;;;;;15.30;90.79;98040.91;4160138;28;20124;-71
2023/07/15 00:02:01;;;;;;;6.22;3.10;;;;;;;15.28;90.67;98038.56;4162761;28;20500;-71
2023/07/15 00:04:02;;;;;;;5.13;3.30;;;;;;;15.29;89.32;98040.13;4173174;28;20029;-71
2023/07/15 00:06:05;;;;;;;5.50;3.60;;;;;;;15.29;89.53;98031.78;4174303;28;20724;-71
2023/07/15 00:08:06;;;;;;;6.50;3.72;;;;;;;15.33;89.42;98029.75;4174224;28;20021;-71
2023/07/15 00:10:07;;;;;;;5.78;3.58;;;;;;;15.37;88.98;98026.88;4170967;28;20095;-71
2023/07/15 00:12:09;;;;;;;7.60;3.45;;;;;;;15.35;89.96;98029.31;4167188;28;20036;-71
2023/07/15 00:14:19;;;;;;;7.20;3.72;;;;;;;15.35;89.61;98026.53;4173120;28;20040;-71
2023/07/15 00:16:20;;;;;;;6.45;3.72;;;;;;;15.31;89.07;98021.03;4167207;28;20182;-71
2023/07/15 00:18:21;;;;;;;5.10;3.20;;;;;;;15.30;88.95;98018.63;4174164;28;20032;-71
2023/07/15 00:20:21;;;;;;;5.82;3.75;;;;;;;15.27;89.33;98025.84;4159496;28;20108;-71
2023/07/15 00:22:22;;;;;;;6.00;3.45;;;;;;;15.20;90.45;98020.38;4157835;28;20455;-71
2023/07/15 00:24:22;;;;;;;5.32;3.60;;;;;;;15.11;91.10;98009.75;4159559;28;20128;-71
2023/07/15 00:26:24;;;;;;;5.97;4.43;;;;;;;15.10;90.58;98015.75;4159494;28;20042;-71
2023/07/15 00:28:24;;;;;;;7.63;3.55;;;;;;;15.07;89.96;98013.81;4159226;28;20049;-71
2023/07/15 00:30:25;;;;;;;4.75;3.90;;;;;;;15.07;89.60;98009.00;4158648;28;20432;-71
2023/07/15 00:32:26;;;;;;;8.13;3.97;;;;;;;15.08;89.94;98010.59;4159405;28;21392;-71
2023/07/15 00:34:26;;;;;;;6.93;4.15;;;;;;;15.03;90.37;98004.69;4160339;28;20037;-71
2023/07/15 00:36:27;;;;;;;4.68;3.65;;;;;;;15.07;89.61;98003.44;4159357;28;20060;-70
2023/07/15 00:38:28;;;;;;;5.63;3.55;;;;;;;15.09;89.03;98008.59;4159786;28;20049;-70
2023/07/15 00:40:32;;;;;;;6.18;3.58;;;;;;;15.03;90.16;97999.13;4159399;28;20049;-70
2023/07/15 00:42:49;;;;;;;10.07;3.95;;;;;;;15.03;89.44;97997.13;4164672;28;20040;-70
2023/07/15 00:44:49;;;;;;;6.72;3.25;;;;;;;14.98;89.99;97991.25;4172411;28;20382;-70
2023/07/15 00:47:03;;;;;;;6.43;3.43;;;;;;;14.91;90.41;97999.69;4159407;28;20121;-70
2023/07/15 00:49:10;;;;;;;5.57;4.18;;;;;;;14.85;91.04;97991.00;4162083;28;20745;-70
2023/07/15 00:51:10;;;;;;;12.48;3.78;;;;;;;14.77;91.56;97995.09;4173005;28;20049;-70
2023/07/15 00:53:10;;;;;;;7.25;3.88;;;;;;;14.77;91.98;97992.31;4173940;28;20096;-70
2023/07/15 00:55:11;;;;;;;4.25;3.42;;;;;;;14.72;92.93;97990.75;4161567;28;20049;-70
2023/07/15 00:57:15;;;;;;;8.27;4.00;;;;;;;14.67;95.28;97998.81;4159010;28;20034;-70
2023/07/15 00:59:16;;;;;;;8.15;3.67;;;;;;;14.56;96.15;97999.75;4157196;28;20160;-70
2023/07/15 01:01:17;;;;;;;5.40;3.70;;;;;;;14.55;94.75;97994.56;4158985;28;20058;-70
2023/07/15 01:03:17;;;;;;;4.72;3.38;;;;;;;14.52;94.96;97992.63;4158169;28;20080;-70
2023/07/15 01:05:18;;;;;;;5.70;3.55;;;;;;;14.39;97.36;97992.31;4158591;28;20048;-70
2023/07/15 01:07:18;;;;;;;5.70;3.70;;;;;;;14.41;98.18;97989.16;4159276;28;20041;-70
2023/07/15 01:09:19;;;;;;;6.10;3.90;;;;;;;14.36;96.51;97995.94;4158436;28;20037;-70
2023/07/15 01:11:21;;;;;;;5.57;3.17;;;;;;;14.39;95.86;97981.19;4158532;28;20084;-70
2023/07/15 01:13:21;;;;;;;6.05;3.90;;;;;;;14.41;95.79;97981.59;4170609;28;20048;-70
2023/07/15 01:15:22;;;;;;;6.15;3.90;;;;;;;14.37;97.08;97988.38;4172350;28;20105;-70
2023/07/15 01:17:22;;;;;;;6.47;3.55;;;;;;;14.29;97.94;97982.13;4173166;28;20099;-70
2023/07/15 01:19:22;;;;;;;5.35;3.70;;;;;;;14.25;97.79;97986.94;4173422;28;20531;-70
2023/07/15 01:21:25;;;;;;;5.10;3.60;;;;;;;14.25;97.49;97987.72;4174767;28;20428;-70
2023/07/15 01:23:29;;;;;;;6.80;3.70;;;;;;;14.19;98.35;97991.38;4171982;28;20053;-70
2023/07/15 01:25:30;;;;;;;7.05;3.90;;;;;;;14.13;98.74;97991.03;4158342;28;20076;-70
2023/07/15 01:27:30;;;;;;;4.82;3.40;;;;;;;14.14;98.32;97980.69;4158268;28;20054;-70
2023/07/15 01:29:30;;;;;;;4.88;3.30;;;;;;;14.14;97.55;97989.03;4158641;28;20530;-70
2023/07/15 01:31:31;;;;;;;4.68;3.80;;;;;;;14.14;97.88;97983.47;4158547;28;20175;-70
2023/07/15 01:33:32;;;;;;;5.20;3.38;;;;;;;14.14;97.41;97977.91;4156825;28;20428;-70
2023/07/15 01:35:32;;;;;;;6.13;3.85;;;;;;;14.09;99.87;97981.94;4162843;28;20045;-70
2023/07/15 01:37:33;;;;;;;3.67;3.17;;;;;;;14.14;98.03;97977.91;4158940;28;20129;-70
2023/07/15 01:39:34;;;;;;;4.90;3.70;;;;;;;14.16;98.08;97978.31;4165237;28;20077;-70
2023/07/15 01:41:35;;;;;;;5.57;3.53;;;;;;;14.19;97.35;97980.25;4157670;28;20044;-70
2023/07/15 01:43:35;;;;;;;6.00;3.80;;;;;;;14.20;97.37;97974.25;4157787;28;20123;-70
2023/07/15 01:45:36;;;;;;;8.65;3.70;;;;;;;14.21;97.30;97975.03;4158456;28;20057;-70
2023/07/15 01:47:37;;;;;;;6.45;3.42;;;;;;;14.28;95.46;97966.63;4157862;28;20076;-70
2023/07/15 01:49:37;;;;;;;3.95;3.25;;;;;;;14.29;96.73;97966.22;4170127;28;20045;-70
2023/07/15 01:51:38;;;;;;;5.07;3.30;;;;;;;14.31;97.48;97979.69;4164907;28;20124;-70
2023/07/15 01:53:38;;;;;;;6.20;3.65;;;;;;;14.19;98.70;97969.91;4157512;28;20041;-70
2023/07/15 01:55:38;;;;;;;5.55;3.75;;;;;;;14.19;96.79;97969.91;4158321;28;20034;-70
2023/07/15 01:57:39;;;;;;;10.77;3.88;;;;;;;14.15;98.20;97971.94;4157827;28;20124;-70
2023/07/15 01:59:39;;;;;;;7.57;3.55;;;;;;;14.04;99.37;97963.69;4157915;28;20064;-70
2023/07/15 02:01:41;;;;;;;5.95;3.45;;;;;;;14.00;99.18;97965.75;4158132;28;20183;-70
2023/07/15 02:03:41;;;;;;;6.38;3.50;;;;;;;13.98;99.14;97962.59;4157794;28;20159;-70
2023/07/15 02:05:42;;;;;;;9.32;4.18;;;;;;;13.95;98.77;97957.84;4157740;28;20093;-70
2023/07/15 02:07:43;;;;;;;5.90;3.30;;;;;;;13.97;97.80;97971.31;4158051;28;20545;-70
2023/07/15 02:09:43;;;;;;;6.72;3.80;;;;;;;13.91;99.28;97971.00;4158359;28;20088;-70
2023/07/15 02:11:44;;;;;;;9.35;3.95;;;;;;;13.88;100.00;97966.25;4157869;28;20132;-70
2023/07/15 02:13:44;;;;;;;8.52;3.58;;;;;;;13.85;99.37;97967.09;4157423;28;20049;-70
2023/07/15 02:15:46;;;;;;;4.07;3.15;;;;;;;13.87;98.46;97961.88;4157923;28;20080;-70
2023/07/15 02:17:46;;;;;;;6.78;4.55;;;;;;;13.85;99.44;97963.50;4157893;28;20095;-70
2023/07/15 02:19:47;;;;;;;5.75;3.35;;;;;;;13.82;100.00;97967.91;4157539;28;20496;-70
2023/07/15 02:21:47;;;;;;;7.28;3.30;;;;;;;13.82;98.98;97965.13;4158161;28;20067;-70
2023/07/15 02:23:47;;;;;;;5.78;3.72;;;;;;;13.79;99.50;97957.59;4157500;28;20296;-70
2023/07/15 02:25:48;;;;;;;7.53;3.70;;;;;;;13.78;99.88;97953.25;4166529;28;20045;-70
2023/07/15 02:27:49;;;;;;;6.53;3.70;;;;;;;13.76;100.00;97964.00;4161955;28;20042;-70
2023/07/15 02:29:49;;;;;;;6.50;3.38;;;;;;;13.73;100.00;97948.13;4157809;28;20393;-70
2023/07/15 02:31:50;;;;;;;7.20;3.80;;;;;;;13.68;100.00;97962.47;4158107;28;20120;-70
2023/07/15 02:33:50;;;;;;;7.32;3.78;;;;;;;13.59;100.00;97960.19;4157232;28;20137;-70
2023/07/15 02:35:51;;;;;;;5.78;3.20;;;;;;;13.52;100.00;97957.47;4157457;28;20433;-70
2023/07/15 02:37:52;;;;;;;6.35;3.17;;;;;;;13.43;100.00;97957.94;4158140;28;20046;-70
2023/07/15 02:39:52;;;;;;;6.47;4.07;;;;;;;13.42;100.00;97961.13;4157226;28;20034;-70
2023/07/15 02:41:52;;;;;;;9.90;4.40;;;;;;;13.37;100.00;97970.66;4168630;28;20504;-70
2023/07/15 02:43:53;;;;;;;6.75;4.00;;;;;;;13.34;100.00;97954.03;4171505;28;20262;-70
2023/07/15 02:45:53;;;;;;;8.98;4.00;;;;;;;13.35;100.00;97958.41;4169100;28;20104;-70
2023/07/15 02:47:53;;;;;;;8.93;4.15;;;;;;;13.27;100.00;97963.22;4176916;28;20106;-70
2023/07/15 02:49:54;;;;;;;7.22;4.03;;;;;;;13.27;100.00;97957.66;4175291;28;20041;-70
2023/07/15 02:51:54;;;;;;;5.93;3.58;;;;;;;13.26;100.00;97956.09;4165874;28;20216;-70
2023/07/15 02:53:55;;;;;;;5.30;3.58;;;;;;;13.34;100.00;97948.47;4159884;28;20068;-70
2023/07/15 02:55:56;;;;;;;7.80;4.30;;;;;;;13.38;100.00;97949.22;4160840;28;20041;-70
2023/07/15 02:57:56;;;;;;;20.30;4.68;;;;;;;13.33;100.00;97961.59;4161180;28;20396;-70
2023/07/15 02:59:56;;;;;;;6.38;3.60;;;;;;;13.40;100.00;97953.16;4161020;28;20045;-70
2023/07/15 03:01:57;;;;;;;6.43;4.07;;;;;;;13.44;100.00;97956.72;4170152;28;20045;-70
2023/07/15 03:03:57;;;;;;;6.28;3.88;;;;;;;13.50;100.00;97948.75;4174758;28;20520;-70
2023/07/15 03:05:57;;;;;;;4.72;3.50;;;;;;;13.55;100.00;97942.72;4172201;28;20204;-70
2023/07/15 03:07:58;;;;;;;6.38;4.10;;;;;;;13.55;100.00;97961.41;4160748;28;20059;-70
2023/07/15 03:09:59;;;;;;;7.18;4.57;;;;;;;13.52;100.00;97959.44;4160774;28;20108;-70
2023/07/15 03:11:59;;;;;;;9.13;4.75;;;;;;;13.47;100.00;97955.91;4175595;28;20041;-70
2023/07/15 03:13:59;;;;;;;5.55;3.83;;;;;;;13.43;100.00;97955.16;4173853;28;20102;-70
2023/07/15 03:15:59;;;;;;;6.65;3.90;;;;;;;13.38;100.00;97963.13;4171746;28;20470;-70
2023/07/15 03:18:00;;;;;;;9.18;4.20;;;;;;;13.33;100.00;97961.59;4160757;28;20144;-70
2023/07/15 03:20:00;;;;;;;10.20;4.10;;;;;;;13.26;100.00;97966.41;4160418;28;20128;-70
2023/07/15 03:22:00;;;;;;;4.60;3.80;;;;;;;13.14;100.00;97964.84;4160741;28;20067;-70
2023/07/15 03:24:01;;;;;;;4.68;3.90;;;;;;;13.14;100.00;97962.06;4159304;28;20063;-70
2023/07/15 03:26:01;;;;;;;5.15;4.05;;;;;;;13.13;100.00;97966.84;4171286;28;20076;-71
2023/07/15 03:28:01;;;;;;;5.72;4.57;;;;;;;13.11;100.00;97966.47;4174983;28;20470;-71
2023/07/15 03:30:02;;;;;;;6.15;4.43;;;;;;;13.07;100.00;97968.47;4171491;28;20675;-71
2023/07/15 03:32:03;;;;;;;6.28;4.47;;;;;;;13.08;100.00;97972.06;4160639;28;20380;-70
2023/07/15 03:34:03;;;;;;;5.70;4.03;;;;;;;13.07;100.00;97967.66;4160526;28;20477;-71
2023/07/15 03:36:04;;;;;;;7.07;4.30;;;;;;;13.08;100.00;97961.75;4162787;28;20481;-70
2023/07/15 03:38:05;;;;;;;4.32;3.85;;;;;;;13.10;100.00;97966.88;4160053;28;20036;-70
2023/07/15 03:40:08;;;;;;;9.55;4.97;;;;;;;13.07;100.00;97954.56;4159799;28;20029;-70
2023/07/15 03:42:08;;;;;;;5.93;4.20;;;;;;;13.08;100.00;97956.19;4159922;28;20025;-70
2023/07/15 03:44:08;;;;;;;7.05;4.05;;;;;;;13.09;100.00;97966.09;4162721;28;20027;-70
2023/07/15 03:46:08;;;;;;;4.20;3.53;;;;;;;13.08;100.00;97966.50;4165401;28;20091;-70
2023/07/15 03:48:09;;;;;;;6.72;4.28;;;;;;;13.08;100.00;97961.75;4175165;28;20036;-70
2023/07/15 03:50:09;;;;;;;5.75;4.18;;;;;;;13.12;100.00;97965.25;4168938;28;20464;-70
2023/07/15 03:52:10;;;;;;;5.90;4.00;;;;;;;13.12;100.00;97970.03;4159936;28;20116;-70
2023/07/15 03:54:10;;;;;;;5.05;4.07;;;;;;;13.11;100.00;97971.22;4159020;28;20033;-70
2023/07/15 03:56:11;;;;;;;5.15;3.83;;;;;;;13.24;100.00;97964.03;4159848;28;20527;-70
2023/07/15 03:58:11;;;;;;;7.05;4.00;;;;;;;13.26;100.00;97969.97;4160240;28;20112;-70
2023/07/15 04:00:17;;;;;;;8.38;5.43;;;;;;;13.26;100.00;97961.63;4167643;28;20025;-70
2023/07/15 04:02:17;;;;;;;5.28;3.75;;;;;;;13.35;100.00;97973.06;4161073;28;20037;-70
2023/07/15 04:04:17;;;;;;;7.95;5.00;;;;;;;13.44;100.00;97973.41;4159276;28;20476;-70
2023/07/15 04:06:18;;;;;;;9.85;4.65;;;;;;;13.47;100.00;97960.66;4172337;28;20263;-70
2023/07/15 04:08:18;;;;;;;10.55;4.50;;;;;;;13.57;100.00;97970.09;4175552;28;20036;-70
2023/07/15 04:10:19;;;;;;;8.13;4.40;;;;;;;13.64;100.00;97959.72;4160925;28;20049;-70
2023/07/15 04:12:19;;;;;;;6.80;5.28;;;;;;;13.70;100.00;97968.41;4158276;28;20423;-70
2023/07/15 04:14:20;;;;;;;6.43;4.50;;;;;;;13.74;100.00;97963.63;4172157;28;20021;-70
2023/07/15 04:16:20;;;;;;;6.07;4.03;;;;;;;13.82;100.00;97955.97;4172660;28;20069;-70
2023/07/15 04:18:21;;;;;;;5.85;4.10;;;;;;;13.87;100.00;97952.75;4174079;28;20584;-70
2023/07/15 04:20:21;;;;;;;9.68;3.97;;;;;;;13.98;100.00;97957.03;4160789;28;20053;-70
2023/07/15 04:22:21;;;;;;;8.43;4.70;;;;;;;14.10;100.00;97961.25;4170271;28;20520;-70
2023/07/15 04:24:22;;;;;;;7.75;4.53;;;;;;;14.21;100.00;97956.34;4166527;28;20104;-70
2023/07/15 04:26:23;;;;;;;6.28;3.97;;;;;;;14.30;100.00;97951.09;4159384;28;20060;-70
2023/07/15 04:28:23;;;;;;;8.90;3.92;;;;;;;14.45;99.74;97968.44;4159491;28;20067;-70
2023/07/15 04:30:23;;;;;;;7.32;4.30;;;;;;;14.52;98.78;97962.78;4160377;28;20073;-70
2023/07/15 04:32:24;;;;;;;4.88;3.60;;;;;;;14.62;99.71;97963.84;4166164;28;20065;-70
2023/07/15 04:34:24;;;;;;;7.80;4.10;;;;;;;14.72;99.25;97967.69;4171696;28;20123;-70
2023/07/15 04:36:24;;;;;;;5.72;4.07;;;;;;;14.85;99.56;97963.16;4173555;28;20140;-70
2023/07/15 04:38:25;;;;;;;6.47;3.90;;;;;;;14.96;100.00;97966.56;4173461;28;20041;-70
2023/07/15 04:40:25;;;;;;;5.40;4.15;;;;;;;15.06;100.00;97954.50;4174955;28;20037;-70
2023/07/15 04:42:25;;;;;;;4.57;3.92;;;;;;;15.18;99.89;97962.28;4173623;28;20620;-70
2023/07/15 04:44:26;;;;;;;6.38;4.43;;;;;;;15.28;99.83;97949.38;4158973;28;20372;-70
2023/07/15 04:46:26;;;;;;;6.80;4.10;;;;;;;15.38;100.00;97954.00;4160332;28;20045;-70
2023/07/15 04:48:27;;;;;;;6.20;3.83;;;;;;;15.43;100.00;97958.31;4159174;28;20287;-70
2023/07/15 04:50:27;;;;;;;4.82;3.80;;;;;;;15.51;100.00;97959.78;4158718;28;20033;-71
2023/07/15 04:52:28;;;;;;;6.85;4.65;;;;;;;15.67;100.00;97959.94;4172157;28;20052;-70
2023/07/15 04:54:28;;;;;;;5.20;4.00;;;;;;;15.79;99.48;97966.09;4173002;28;20140;-71
2023/07/15 04:56:29;;;;;;;5.35;3.88;;;;;;;15.81;98.75;97961.69;4173709;28;20033;-71
2023/07/15 04:58:29;;;;;;;7.00;3.90;;;;;;;15.83;97.77;97962.03;4166024;28;20112;-70
2023/07/15 05:00:30;;;;;;;5.43;4.35;;;;;;;16.00;97.00;97968.50;4159028;28;20049;-70
2023/07/15 05:02:30;;;;;;;5.60;4.07;;;;;;;16.18;94.26;97963.38;4158240;28;20073;-70
2023/07/15 05:04:30;;;;;;;7.35;3.67;;;;;;;16.37;92.74;97961.81;4158713;28;20029;-70
2023/07/15 05:06:31;;;;;;;8.30;3.83;;;;;;;16.58;92.32;97961.38;4158543;28;20037;-71
2023/07/15 05:08:31;;;;;;;7.25;3.70;;;;;;;16.71;92.97;97957.97;4157996;28;20032;-71
2023/07/15 05:10:32;;;;;;;7.03;3.60;;;;;;;16.89;91.49;97972.34;4158860;28;20410;-70
2023/07/15 05:12:33;;;;;;;5.95;3.60;;;;;;;17.08;90.18;97960.34;4171721;28;20044;-71
2023/07/15 05:14:33;;;;;;;7.72;3.90;;;;;;;17.25;87.89;97951.97;4174189;28;20064;-71
2023/07/15 05:16:33;;;;;;;6.50;3.58;;;;;;;17.36;89.90;97958.09;4170107;28;20129;-70
2023/07/15 05:18:34;;;;;;;6.28;3.28;;;;;;;17.44;87.09;97950.31;4158551;28;20033;-70
2023/07/15 05:20:35;;;;;;;10.93;3.97;;;;;;;17.54;88.68;97957.66;4157420;28;20500;-70
2023/07/15 05:22:35;;;;;;;5.05;3.35;;;;;;;17.64;91.95;97957.41;4162428;28;20132;-70
2023/07/15 05:24:36;;;;;;;7.47;3.47;;;;;;;17.77;89.21;97957.50;4158835;28;20487;-70
2023/07/15 05:26:36;;;;;;;6.00;3.42;;;;;;;17.94;92.09;97956.25;4158224;28;20077;-70
2023/07/15 05:28:38;;;;;;;7.07;3.65;;;;;;;18.16;90.48;97958.50;4173929;28;20033;-70
2023/07/15 05:30:38;;;;;;;6.13;3.03;;;;;;;18.29;88.05;97945.34;4173487;28;20041;-70
2023/07/15 05:32:38;;;;;;;7.22;3.42;;;;;;;18.44;89.87;97942.91;4164330;28;20144;-71
2023/07/15 05:34:39;;;;;;;6.47;3.83;;;;;;;18.59;90.72;97944.06;4158147;28;20456;-71
2023/07/15 05:36:39;;;;;;;6.50;3.15;;;;;;;18.75;90.44;97948.84;4157247;28;20393;-71
2023/07/15 05:38:43;;;;;;;11.43;4.07;;;;;;;18.88;90.22;97938.44;4161787;28;20076;-71
2023/07/15 05:40:43;;;;;;;4.78;3.25;;;;;;;19.00;90.10;97931.25;4165835;28;20291;-70
2023/07/15 05:42:45;;;;;;;7.53;4.10;;;;;;;19.09;88.68;97929.34;4162683;28;20481;-70
2023/07/15 05:44:46;;;;;;;7.70;3.40;;;;;;;19.23;89.15;97938.56;4158247;28;20124;-70
2023/07/15 05:46:46;;;;;;;8.13;3.75;;;;;;;19.39;89.86;97946.06;4159181;28;20146;-70
2023/07/15 05:48:46;;;;;;;5.25;3.38;;;;;;;19.54;89.69;97945.16;4157955;28;20041;-71
2023/07/15 05:50:48;;;;;;;5.78;3.45;;;;;;;19.74;87.98;97941.34;4157622;28;20049;-71
2023/07/15 05:52:48;;;;;;;5.95;3.20;;;;;;;19.93;86.92;97946.66;4157653;28;20493;-71
2023/07/15 05:54:48;;;;;;;5.93;3.22;;;;;;;20.07;86.39;97939.00;4158184;28;20440;-70
2023/07/15 05:56:48;;;;;;;5.22;3.47;;;;;;;20.18;85.59;97934.56;4157908;28;20038;-71
2023/07/15 05:58:52;;;;;;;4.95;3.45;;;;;;;20.32;84.54;97938.88;4158184;28;20068;-70
2023/07/15 06:00:52;;;;;;;5.03;3.30;;;;;;;20.46;84.47;97935.59;4157820;28;20045;-71
2023/07/15 06:02:53;;;;;;;4.57;2.88;;;;;;;20.61;82.60;97933.03;4157023;28;20052;-71
2023/07/15 06:04:53;;;;;;;6.03;2.92;;;;;;;20.79;82.79;97940.00;4165374;28;20124;-71
2023/07/15 06:06:53;;;;;;;7.22;3.00;;;;;;;20.91;82.04;97925.84;4162775;28;20049;-71
2023/07/15 06:08:54;;;;;;;9.48;3.10;;;;;;;21.05;80.95;97924.53;4158045;28;20268;-71
2023/07/15 06:10:54;;;;;;;5.93;2.72;;;;;;;21.16;80.60;97933.31;4165518;28;20099;-71
2023/07/15 06:12:54;;;;;;;4.43;3.22;;;;;;;21.27;79.12;97930.91;4160802;28;20469;-71
2023/07/15 06:14:56;;;;;;;5.43;3.22;;;;;;;21.42;79.26;97941.56;4171962;28;20044;-71
2023/07/15 06:16:56;;;;;;;5.32;2.72;;;;;;;21.63;78.75;97937.09;4162342;28;20033;-71
2023/07/15 06:18:57;;;;;;;7.55;3.00;;;;;;;21.81;76.78;97935.09;4157271;28;20056;-71
2023/07/15 06:20:57;;;;;;;4.88;2.88;;;;;;;21.93;75.06;97935.41;4156838;28;20045;-71
2023/07/15 06:22:57;;;;;;;3.97;3.00;;;;;;;22.01;74.49;97931.84;4157524;28;20072;-71
2023/07/15 06:24:58;;;;;;;7.15;2.90;;;;;;;22.09;74.03;97933.13;4157515;28;20064;-71
2023/07/15 06:26:58;;;;;;;3.45;2.70;;;;;;;22.22;74.12;97927.34;4157647;28;20497;-71
2023/07/15 06:28:59;;;;;;;6.13;2.90;;;;;;;22.31;73.74;97921.69;4158144;28;20034;-71
2023/07/15 06:31:06;;;;;;;4.60;2.73;;;;;;;22.40;73.71;97923.72;4157715;28;20491;-71
2023/07/15 06:33:06;;;;;;;4.43;2.80;;;;;;;22.48;73.76;97919.31;4157262;28;20666;-70
2023/07/15 06:35:07;;;;;;;3.08;2.63;;;;;;;22.59;73.78;97930.91;4173401;28;20037;-71
2023/07/15 06:37:07;;;;;;;7.32;3.08;;;;;;;22.78;72.71;97934.47;4158894;28;20136;-71
2023/07/15 06:39:08;;;;;;;3.85;2.95;;;;;;;22.87;72.04;97926.03;4162000;28;20076;-71
2023/07/15 06:41:08;;;;;;;2.35;2.15;;;;;;;22.93;70.45;97926.94;4161546;28;20489;-71
2023/07/15 06:43:09;;;;;;;5.60;2.75;;;;;;;23.01;70.45;97924.56;4160029;28;20685;-71
2023/07/15 06:45:11;;;;;;;4.82;3.10;;;;;;;23.10;69.64;97927.38;4162346;28;20053;-71
2023/07/15 06:47:11;;;;;;;5.90;2.97;;;;;;;23.19;69.75;97920.91;4156139;28;20042;-71
2023/07/15 06:49:12;;;;;;;5.13;2.60;;;;;;;23.31;68.29;97916.28;4159814;28;20124;-71
2023/07/15 06:51:14;;;;;;;5.05;2.47;;;;;;;23.57;65.07;97925.09;4163186;28;20462;-71
2023/07/15 06:53:14;;;;;;;3.28;2.22;;;;;;;23.72;63.05;97918.28;4158596;28;20081;-71
2023/07/15 06:55:16;;;;;;;3.97;2.47;;;;;;;23.87;64.56;97926.81;4164554;28;20120;-71
2023/07/15 06:57:16;;;;;;;6.38;2.35;;;;;;;24.02;62.35;97913.53;4159968;28;20511;-71
2023/07/15 06:59:16;;;;;;;5.40;2.40;;;;;;;24.18;61.68;97915.13;4159444;28;20076;-71
2023/07/15 07:01:17;;;;;;;3.13;2.47;;;;;;;24.18;61.05;97917.97;4155742;28;20589;-71
2023/07/15 07:03:17;;;;;;;4.35;2.40;;;;;;;24.19;61.39;97910.25;4155207;28;20045;-71
2023/07/15 07:05:19;;;;;;;5.40;2.35;;;;;;;24.31;59.03;97909.19;4154087;28;20505;-71
2023/07/15 07:07:22;;;;;;;5.72;2.33;;;;;;;24.45;58.75;97904.88;4159144;28;20046;-71
2023/07/15 07:09:22;;;;;;;4.55;2.50;;;;;;;24.59;57.32;97904.91;4154303;28;20843;-71
2023/07/15 07:11:23;;;;;;;4.20;2.25;;;;;;;24.85;58.19;97907.91;4150777;28;20053;-71
2023/07/15 07:13:23;;;;;;;3.20;2.25;;;;;;;24.98;58.64;97901.94;4148804;28;20065;-71
2023/07/15 07:15:23;;;;;;;5.63;2.08;;;;;;;25.02;57.94;97898.94;4150244;28;20068;-71
2023/07/15 07:17:24;;;;;;;3.22;2.05;;;;;;;25.06;56.03;97903.13;4152125;28;20061;-71
2023/07/15 07:19:24;;;;;;;3.67;2.00;;;;;;;25.15;53.75;97900.19;4158806;28;20049;-71
2023/07/15 07:21:24;;;;;;;3.22;2.00;;;;;;;25.29;52.37;97903.50;4160269;28;20096;-71
2023/07/15 07:23:25;;;;;;;2.38;2.05;;;;;;;25.52;52.07;97907.44;4158481;28;20159;-71
2023/07/15 07:25:25;;;;;;;2.70;2.00;;;;;;;25.57;54.25;97906.72;4153338;28;20045;-71
2023/07/15 07:27:26;;;;;;;5.60;1.75;;;;;;;25.62;53.08;97903.97;4157546;28;20175;-71
2023/07/15 07:29:26;;;;;;;4.82;2.20;;;;;;;25.73;52.05;97897.72;4156750;28;20455;-71
2023/07/15 07:31:27;;;;;;;4.18;2.20;;;;;;;26.12;49.54;97901.03;4149548;28;20497;-71
2023/07/15 07:33:27;;;;;;;2.65;2.13;;;;;;;26.22;50.60;97904.50;4151513;28;20324;-71
2023/07/15 07:35:28;;;;;;;2.20;1.83;;;;;;;26.22;50.29;97898.81;4152997;28;20388;-71
2023/07/15 07:37:28;;;;;;;4.35;2.03;;;;;;;26.20;49.62;97892.88;4153554;28;20132;-71
2023/07/15 07:39:28;;;;;;;2.97;1.98;;;;;;;26.18;49.39;97890.56;4152391;28;20043;-71
2023/07/15 07:41:29;;;;;;;3.70;1.85;;;;;;;26.32;49.58;97889.69;4152091;28;20138;-71
2023/07/15 07:43:29;;;;;;;2.20;1.90;;;;;;;26.37;49.33;97876.84;4159715;28;20551;-71
2023/07/15 07:45:29;;;;;;;2.17;1.98;;;;;;;26.95;46.29;97889.00;4158462;28;20428;-71
2023/07/15 07:47:30;;;;;;;3.00;1.88;;;;;;;27.11;44.84;97879.09;4161453;28;20061;-71
2023/07/15 07:49:30;;;;;;;4.70;2.10;;;;;;;27.25;45.05;97883.84;4164367;28;20041;-71
2023/07/15 07:51:30;;;;;;;3.00;1.73;;;;;;;27.37;44.02;97885.47;4161877;28;20038;-71
2023/07/15 07:53:31;;;;;;;3.33;1.73;;;;;;;27.42;44.66;97879.06;4161971;28;20053;-71
2023/07/15 07:55:31;;;;;;;3.30;1.95;;;;;;;27.33;45.99;97878.50;4163878;28;20037;-71
2023/07/15 07:57:32;;;;;;;3.05;1.58;;;;;;;27.35;45.60;97881.59;4163557;28;20199;-71
2023/07/15 07:59:32;;;;;;;4.32;1.63;;;;;;;27.46;44.37;97873.13;4161989;28;20116;-71
2023/07/15 08:01:33;;;;;;;1.98;1.58;;;;;;;27.84;42.07;97871.03;4162552;28;20041;-71
2023/07/15 08:03:34;;;;;;;1.90;1.60;;;;;;;28.15;42.15;97881.50;4161820;28;20076;-71
2023/07/15 08:05:39;;;;;;;3.05;1.70;;;;;;;28.35;41.07;97867.09;4164145;28;20485;-71
2023/07/15 08:07:39;;;;;;;2.72;1.80;;;;;;;28.53;40.83;97869.47;4159941;28;20083;-71
2023/07/15 08:09:40;;;;;;;2.78;1.55;;;;;;;28.67;39.90;97869.75;4159930;28;20423;-71
2023/07/15 08:11:42;;;;;;;5.03;1.60;;;;;;;28.67;39.66;97872.59;4171284;28;20076;-71
2023/07/15 08:13:43;;;;;;;;;;;;;;;28.72;40.79;97871.84;4164355;28;20049;-71
2023/07/15 08:15:43;;;;;;;6.00;1.53;;;;;;;28.69;41.31;97876.47;4175150;28;20430;-71
2023/07/15 08:17:43;;;;;;;3.72;1.98;;;;;;;28.74;39.80;97867.16;4174203;28;20303;-72
2023/07/15 08:19:44;;;;;;;2.55;1.60;;;;;;;28.74;40.45;97878.56;4174331;28;20098;-72
2023/07/15 08:21:44;;;;;;;3.53;2.00;;;;;;;28.76;39.93;97875.19;4174132;28;20067;-72
2023/07/15 08:23:45;;;;;;;2.47;1.60;;;;;;;28.78;40.82;97884.75;4173101;28;20045;-72
2023/07/15 08:25:45;;;;;;;2.10;1.40;;;;;;;28.87;40.76;97882.94;4174683;28;20388;-72
2023/07/15 08:27:45;;;;;;;2.05;1.42;;;;;;;28.89;41.05;97881.16;4165208;28;20316;-72
2023/07/15 08:29:46;;;;;;;2.92;1.83;;;;;;;28.92;39.60;97883.00;4158928;28;20127;-72
2023/07/15 08:31:47;;;;;;;3.25;1.50;;;;;;;28.95;40.53;97890.50;4159414;28;20143;-72
2023/07/15 08:33:47;;;;;;;4.82;1.83;;;;;;;28.97;40.31;97892.84;4171353;28;20463;-72
2023/07/15 08:35:47;;;;;;;3.25;1.60;;;;;;;28.94;41.01;97888.94;4174222;28;20041;-72
2023/07/15 08:37:48;;;;;;;1.50;1.40;;;;;;;28.88;42.34;97891.00;4164740;28;20045;-72
2023/07/15 08:39:48;;;;;;;2.95;2.05;;;;;;;28.95;41.00;97893.34;4159031;28;20522;-72
2023/07/15 08:41:52;;;;;;;1.90;1.50;;;;;;;28.94;41.62;97893.84;4159778;28;20501;-72
2023/07/15 08:43:53;;;;;;;2.10;1.40;;;;;;;28.77;42.10;97891.75;4158068;28;20475;-72
2023/07/15 08:45:57;;;;;;;2.30;1.80;;;;;;;28.85;41.55;97899.78;4161033;28;20243;-72
2023/07/15 08:47:57;;;;;;;1.60;1.42;;;;;;;28.90;40.65;97890.50;4162598;28;20063;-72
2023/07/15 08:50:02;;;;;;;4.72;1.63;;;;;;;29.06;41.10;97890.50;4172395;28;20056;-72
2023/07/15 08:52:04;;;;;;;2.38;1.80;;;;;;;29.23;40.65;97884.03;4169644;28;20037;-72
2023/07/15 08:54:06;;;;;;;2.30;1.55;;;;;;;29.41;41.49;97889.19;4158438;28;20045;-72
2023/07/15 08:56:08;;;;;;;;;;;;;;;29.44;41.26;97888.13;4159405;28;20029;-72
2023/07/15 08:58:09;;;;;;;14.15;2.15;;;;;;;29.52;40.13;97889.16;4158608;28;19913;-72
2023/07/15 09:00:11;;;;;;;4.38;1.80;;;;;;;29.62;39.94;97887.63;4159274;28;20044;-72
2023/07/15 09:02:11;;;;;;;4.07;1.80;;;;;;;29.69;39.13;97902.59;4171117;28;20041;-72
2023/07/15 09:04:11;;;;;;;3.85;1.77;;;;;;;29.70;39.63;97896.38;4158981;28;20032;-71
2023/07/15 09:06:14;;;;;;;1.83;1.63;;;;;;;29.72;39.23;97899.50;4162223;28;20376;-72
2023/07/15 09:08:15;;;;;;;2.55;1.60;;;;;;;29.69;38.79;97894.06;4151392;28;20045;-72
2023/07/15 09:10:16;;;;;;;4.73;1.67;;;;;;;29.66;39.48;97893.03;4151265;28;20076;-71
2023/07/15 09:12:16;;;;;;;2.63;1.58;;;;;;;29.65;38.98;97891.50;4150785;28;20970;-72
2023/07/15 09:14:17;;;;;;;2.08;1.55;;;;;;;29.71;38.54;97889.41;4155567;28;20029;-72
2023/07/15 09:16:17;;;;;;;1.80;1.63;;;;;;;29.83;39.88;97895.84;4161679;28;20025;-72
2023/07/15 09:18:19;;;;;;;2.42;1.58;;;;;;;29.87;38.18;97896.31;4160637;28;20343;-72
2023/07/15 09:20:20;;;;;;;4.70;1.90;;;;;;;30.00;39.32;97902.25;4161368;28;20059;-72
2023/07/15 09:22:23;;;;;;;3.25;1.58;;;;;;;29.89;39.32;97899.44;4153496;28;20060;-72
2023/07/15 09:24:24;;;;;;;5.30;2.15;;;;;;;29.98;38.54;97904.88;4156764;28;20045;-72
2023/07/15 09:26:24;;;;;;;2.03;1.60;;;;;;;29.90;38.47;97901.00;4158633;28;20369;-72